Briefing drone pour Bellerive-sur-allier

Rechercher une autre localisation

Conditions de vol :


Nous sommes le : Mardi 24 mai 2022
Il est 13:11 UTC (15:11 LT)

Lever de soleil : 03:38 UTC (05:38 LT)
Coucher de soleil : 19:48 UTC (21:48 LT)

Météo

L'essentiel des conditions de vol

VIGILANCE MÉTÉO FRANCE - Allier (03)
Pas de vigilances particulieres
METAR de LFLV
LFLV 241300Z AUTO VRB02KT CAVOK 19/06 Q1011

Date d'émission: 24/05/2022
Heure d'émission: 13:00 UTC
Vent: Variable 2 KT (4 km/h)
Visibilité horizontale: > 10 km
Plafond : Plafond et visibilité OK (CAVOK)
Température: 19 °C
Point de rosée: 6 °C
Humidité: 43%
Pression (QNH): 1011 hPa
Prévision 24h pour Vichy (1 km)
Vent : 311° pour 2 KT (7 km/h)
Temperature Maxi: 16 °C
Temperature Min: 16 °C
Humidité : 58%
Condition : Ciel dégagé



Warning: count(): Parameter must be an array or an object that implements Countable in /homepages/6/d509196549/htdocs/droneoxygene/briefing.php on line 743
WEBCAM POUR BELLERIVE-SUR-ALLIER

Réglementation

Voler en sécurité

CARTES AERONAUTIQUE 1/500.000
CARTES VAC (LFLV)
SUP AIP




Chargement des AIP...
NOTAM (BELLERIVE-SUR-ALLIER + Terrain à proximité / FIR )




Chargement des NOTAMS...
CONTACT PREFECTURE 03


Avertissement : Les données mises à disposition sont indicatives. Oxygène Drone ne pourra être tenu responsable de dégâts causés aux biens et aux personnes.